sensor_id;sensor_type;location;lat;lon;timestamp;temperature;humidity
53645;DHT22;39547;45.554;12.068;2022-08-03T00:04:35;26.20;55.40
53645;DHT22;39547;45.554;12.068;2022-08-03T00:10:37;26.10;55.50
53645;DHT22;39547;45.554;12.068;2022-08-03T00:16:46;26.00;56.40
53645;DHT22;39547;45.554;12.068;2022-08-03T00:22:48;25.80;56.60
53645;DHT22;39547;45.554;12.068;2022-08-03T00:28:50;25.80;56.90
53645;DHT22;39547;45.554;12.068;2022-08-03T00:34:51;25.70;57.00
53645;DHT22;39547;45.554;12.068;2022-08-03T00:40:52;25.60;57.30
53645;DHT22;39547;45.554;12.068;2022-08-03T00:46:54;25.50;57.70
53645;DHT22;39547;45.554;12.068;2022-08-03T00:52:58;25.50;57.80
53645;DHT22;39547;45.554;12.068;2022-08-03T00:58:59;25.40;57.70
53645;DHT22;39547;45.554;12.068;2022-08-03T01:05:01;25.40;57.80
53645;DHT22;39547;45.554;12.068;2022-08-03T01:11:11;25.40;57.80
53645;DHT22;39547;45.554;12.068;2022-08-03T01:30:14;25.30;57.90
53645;DHT22;39547;45.554;12.068;2022-08-03T01:36:23;25.30;57.90
53645;DHT22;39547;45.554;12.068;2022-08-03T01:42:28;25.30;57.90
53645;DHT22;39547;45.554;12.068;2022-08-03T01:48:31;25.30;57.90
53645;DHT22;39547;45.554;12.068;2022-08-03T01:54:41;25.20;57.90
53645;DHT22;39547;45.554;12.068;2022-08-03T02:00:44;25.20;57.80
53645;DHT22;39547;45.554;12.068;2022-08-03T02:06:47;25.20;57.90
53645;DHT22;39547;45.554;12.068;2022-08-03T02:12:49;25.20;57.80
53645;DHT22;39547;45.554;12.068;2022-08-03T02:18:53;25.10;57.80
53645;DHT22;39547;45.554;12.068;2022-08-03T02:24:55;25.10;57.80
53645;DHT22;39547;45.554;12.068;2022-08-03T02:30:57;25.00;57.80
53645;DHT22;39547;45.554;12.068;2022-08-03T02:37:03;25.00;57.70
53645;DHT22;39547;45.554;12.068;2022-08-03T02:43:12;25.10;57.60
53645;DHT22;39547;45.554;12.068;2022-08-03T02:49:17;25.10;57.70
53645;DHT22;39547;45.554;12.068;2022-08-03T02:55:21;25.10;57.80
53645;DHT22;39547;45.554;12.068;2022-08-03T03:01:23;25.00;58.10
53645;DHT22;39547;45.554;12.068;2022-08-03T03:07:25;24.90;58.30
53645;DHT22;39547;45.554;12.068;2022-08-03T03:13:27;24.80;58.90
53645;DHT22;39547;45.554;12.068;2022-08-03T03:19:29;24.70;59.50
53645;DHT22;39547;45.554;12.068;2022-08-03T03:25:32;24.70;59.20
53645;DHT22;39547;45.554;12.068;2022-08-03T03:31:33;24.60;59.20
53645;DHT22;39547;45.554;12.068;2022-08-03T03:37:35;24.50;59.20
53645;DHT22;39547;45.554;12.068;2022-08-03T03:43:36;24.50;60.20
53645;DHT22;39547;45.554;12.068;2022-08-03T03:49:38;24.30;60.20
53645;DHT22;39547;45.554;12.068;2022-08-03T03:55:39;24.30;59.60
53645;DHT22;39547;45.554;12.068;2022-08-03T04:01:41;24.30;59.90
53645;DHT22;39547;45.554;12.068;2022-08-03T04:07:47;24.20;60.10
53645;DHT22;39547;45.554;12.068;2022-08-03T04:14:12;24.20;60.00
53645;DHT22;39547;45.554;12.068;2022-08-03T04:20:14;24.20;60.30
53645;DHT22;39547;45.554;12.068;2022-08-03T04:26:18;24.20;60.60
53645;DHT22;39547;45.554;12.068;2022-08-03T04:32:21;24.10;60.50
53645;DHT22;39547;45.554;12.068;2022-08-03T04:38:25;24.10;60.90
53645;DHT22;39547;45.554;12.068;2022-08-03T04:44:27;24.00;61.10
53645;DHT22;39547;45.554;12.068;2022-08-03T04:50:29;24.00;61.30
53645;DHT22;39547;45.554;12.068;2022-08-03T04:56:39;24.00;62.10
53645;DHT22;39547;45.554;12.068;2022-08-03T05:02:41;24.00;61.30
53645;DHT22;39547;45.554;12.068;2022-08-03T05:08:43;24.10;61.20
53645;DHT22;39547;45.554;12.068;2022-08-03T05:14:44;24.20;61.10
53645;DHT22;39547;45.554;12.068;2022-08-03T05:20:45;24.20;60.90
53645;DHT22;39547;45.554;12.068;2022-08-03T05:26:46;24.40;60.80
53645;DHT22;39547;45.554;12.068;2022-08-03T05:32:48;24.50;60.50
53645;DHT22;39547;45.554;12.068;2022-08-03T05:38:49;24.60;59.80
53645;DHT22;39547;45.554;12.068;2022-08-03T05:44:50;24.70;59.60
53645;DHT22;39547;45.554;12.068;2022-08-03T05:50:51;24.80;59.40
53645;DHT22;39547;45.554;12.068;2022-08-03T05:56:53;25.00;58.80
53645;DHT22;39547;45.554;12.068;2022-08-03T06:02:54;25.20;58.50
53645;DHT22;39547;45.554;12.068;2022-08-03T06:08:55;25.30;58.20
53645;DHT22;39547;45.554;12.068;2022-08-03T06:14:56;25.50;58.20
53645;DHT22;39547;45.554;12.068;2022-08-03T06:20:57;25.80;57.70
53645;DHT22;39547;45.554;12.068;2022-08-03T06:26:59;25.90;58.70
53645;DHT22;39547;45.554;12.068;2022-08-03T06:33:00;26.10;58.10
53645;DHT22;39547;45.554;12.068;2022-08-03T06:39:01;26.30;57.30
53645;DHT22;39547;45.554;12.068;2022-08-03T06:45:04;26.50;56.70
53645;DHT22;39547;45.554;12.068;2022-08-03T06:51:06;26.70;56.40
53645;DHT22;39547;45.554;12.068;2022-08-03T06:57:07;26.80;56.50
53645;DHT22;39547;45.554;12.068;2022-08-03T07:03:09;27.10;56.10
53645;DHT22;39547;45.554;12.068;2022-08-03T07:09:10;27.20;56.00
53645;DHT22;39547;45.554;12.068;2022-08-03T07:15:11;27.50;55.40
53645;DHT22;39547;45.554;12.068;2022-08-03T07:21:13;27.70;55.00
53645;DHT22;39547;45.554;12.068;2022-08-03T07:27:16;27.80;54.70
53645;DHT22;39547;45.554;12.068;2022-08-03T07:33:17;28.00;54.30
53645;DHT22;39547;45.554;12.068;2022-08-03T07:39:18;28.20;53.90
53645;DHT22;39547;45.554;12.068;2022-08-03T07:45:19;28.40;53.50
53645;DHT22;39547;45.554;12.068;2022-08-03T07:51:23;28.60;52.60
53645;DHT22;39547;45.554;12.068;2022-08-03T07:57:24;28.80;52.70
53645;DHT22;39547;45.554;12.068;2022-08-03T08:03:25;28.90;52.50
53645;DHT22;39547;45.554;12.068;2022-08-03T08:09:26;29.10;51.80
53645;DHT22;39547;45.554;12.068;2022-08-03T08:15:28;29.30;51.70
53645;DHT22;39547;45.554;12.068;2022-08-03T08:21:29;29.40;51.10
53645;DHT22;39547;45.554;12.068;2022-08-03T08:27:31;29.50;50.50
53645;DHT22;39547;45.554;12.068;2022-08-03T08:33:32;29.70;50.20
53645;DHT22;39547;45.554;12.068;2022-08-03T08:39:35;29.80;49.90
53645;DHT22;39547;45.554;12.068;2022-08-03T08:45:36;30.00;49.70
53645;DHT22;39547;45.554;12.068;2022-08-03T08:51:37;30.20;48.70
53645;DHT22;39547;45.554;12.068;2022-08-03T08:57:44;30.40;48.50
53645;DHT22;39547;45.554;12.068;2022-08-03T09:03:47;30.60;47.90
53645;DHT22;39547;45.554;12.068;2022-08-03T09:09:48;30.70;47.50
53645;DHT22;39547;45.554;12.068;2022-08-03T09:16:07;30.90;46.60
53645;DHT22;39547;45.554;12.068;2022-08-03T09:22:14;31.00;46.10
53645;DHT22;39547;45.554;12.068;2022-08-03T09:28:16;31.30;45.40
53645;DHT22;39547;45.554;12.068;2022-08-03T09:34:18;31.40;45.30
53645;DHT22;39547;45.554;12.068;2022-08-03T09:40:34;31.70;44.60
53645;DHT22;39547;45.554;12.068;2022-08-03T09:46:50;31.80;44.40
53645;DHT22;39547;45.554;12.068;2022-08-03T09:52:51;32.00;44.10
53645;DHT22;39547;45.554;12.068;2022-08-03T09:58:53;32.20;42.70
53645;DHT22;39547;45.554;12.068;2022-08-03T10:04:54;32.30;42.80
53645;DHT22;39547;45.554;12.068;2022-08-03T10:10:55;32.60;41.90
53645;DHT22;39547;45.554;12.068;2022-08-03T10:16:58;32.80;42.00
53645;DHT22;39547;45.554;12.068;2022-08-03T10:22:59;32.90;41.20
53645;DHT22;39547;45.554;12.068;2022-08-03T10:29:02;33.10;41.70
53645;DHT22;39547;45.554;12.068;2022-08-03T10:35:11;33.20;39.70
53645;DHT22;39547;45.554;12.068;2022-08-03T10:41:12;33.30;40.50
53645;DHT22;39547;45.554;12.068;2022-08-03T10:47:15;33.60;40.50
53645;DHT22;39547;45.554;12.068;2022-08-03T10:53:16;33.80;40.10
53645;DHT22;39547;45.554;12.068;2022-08-03T11:05:47;34.00;38.90
53645;DHT22;39547;45.554;12.068;2022-08-03T11:11:54;34.30;39.10
53645;DHT22;39547;45.554;12.068;2022-08-03T11:18:05;34.30;37.40
53645;DHT22;39547;45.554;12.068;2022-08-03T11:24:07;34.50;37.20
53645;DHT22;39547;45.554;12.068;2022-08-03T11:30:22;34.70;37.80
53645;DHT22;39547;45.554;12.068;2022-08-03T11:36:26;34.90;37.80
53645;DHT22;39547;45.554;12.068;2022-08-03T11:48:45;35.10;36.80
53645;DHT22;39547;45.554;12.068;2022-08-03T11:54:49;35.20;37.00
53645;DHT22;39547;45.554;12.068;2022-08-03T12:00:51;35.30;35.70
53645;DHT22;39547;45.554;12.068;2022-08-03T12:06:59;35.30;34.90
53645;DHT22;39547;45.554;12.068;2022-08-03T12:13:01;35.90;35.90
53645;DHT22;39547;45.554;12.068;2022-08-03T12:19:05;36.80;35.70
53645;DHT22;39547;45.554;12.068;2022-08-03T12:25:08;37.60;33.70
53645;DHT22;39547;45.554;12.068;2022-08-03T12:31:09;38.30;34.40
53645;DHT22;39547;45.554;12.068;2022-08-03T12:37:10;39.10;32.50
53645;DHT22;39547;45.554;12.068;2022-08-03T12:43:12;39.10;31.50
53645;DHT22;39547;45.554;12.068;2022-08-03T12:49:14;39.50;31.10
53645;DHT22;39547;45.554;12.068;2022-08-03T12:55:18;40.10;30.80
53645;DHT22;39547;45.554;12.068;2022-08-03T13:01:21;40.70;28.50
53645;DHT22;39547;45.554;12.068;2022-08-03T13:07:27;41.20;29.50
53645;DHT22;39547;45.554;12.068;2022-08-03T13:13:37;41.70;29.90
53645;DHT22;39547;45.554;12.068;2022-08-03T13:19:39;42.00;29.90
53645;DHT22;39547;45.554;12.068;2022-08-03T13:25:40;42.20;29.40
53645;DHT22;39547;45.554;12.068;2022-08-03T13:31:41;42.50;29.00
53645;DHT22;39547;45.554;12.068;2022-08-03T13:37:42;42.90;29.00
53645;DHT22;39547;45.554;12.068;2022-08-03T13:43:44;43.30;28.10
53645;DHT22;39547;45.554;12.068;2022-08-03T13:49:45;43.80;27.80
53645;DHT22;39547;45.554;12.068;2022-08-03T13:55:46;44.20;26.80
53645;DHT22;39547;45.554;12.068;2022-08-03T14:01:48;44.40;25.70
53645;DHT22;39547;45.554;12.068;2022-08-03T14:07:49;44.80;25.30
53645;DHT22;39547;45.554;12.068;2022-08-03T14:13:51;44.80;24.90
53645;DHT22;39547;45.554;12.068;2022-08-03T14:19:52;44.90;23.80
53645;DHT22;39547;45.554;12.068;2022-08-03T14:25:53;45.20;23.40
53645;DHT22;39547;45.554;12.068;2022-08-03T14:31:55;45.60;22.40
53645;DHT22;39547;45.554;12.068;2022-08-03T14:37:56;45.80;21.10
53645;DHT22;39547;45.554;12.068;2022-08-03T14:43:57;46.10;20.30
53645;DHT22;39547;45.554;12.068;2022-08-03T14:49:58;46.10;20.10
53645;DHT22;39547;45.554;12.068;2022-08-03T14:55:59;46.20;19.10
53645;DHT22;39547;45.554;12.068;2022-08-03T15:02:01;46.10;18.80
53645;DHT22;39547;45.554;12.068;2022-08-03T15:08:02;46.20;18.80
53645;DHT22;39547;45.554;12.068;2022-08-03T15:14:03;46.30;18.30
53645;DHT22;39547;45.554;12.068;2022-08-03T15:20:12;46.20;17.60
53645;DHT22;39547;45.554;12.068;2022-08-03T15:26:13;46.20;17.70
53645;DHT22;39547;45.554;12.068;2022-08-03T15:32:14;46.00;17.80
53645;DHT22;39547;45.554;12.068;2022-08-03T15:38:15;44.30;18.30
53645;DHT22;39547;45.554;12.068;2022-08-03T15:44:17;41.70;20.00
53645;DHT22;39547;45.554;12.068;2022-08-03T15:50:19;39.90;21.20
53645;DHT22;39547;45.554;12.068;2022-08-03T15:56:20;38.30;23.30
53645;DHT22;39547;45.554;12.068;2022-08-03T16:02:22;37.20;23.70
53645;DHT22;39547;45.554;12.068;2022-08-03T16:08:23;36.40;24.20
53645;DHT22;39547;45.554;12.068;2022-08-03T16:14:24;35.80;25.00
53645;DHT22;39547;45.554;12.068;2022-08-03T16:20:25;35.50;25.90
53645;DHT22;39547;45.554;12.068;2022-08-03T16:26:27;35.30;26.10
53645;DHT22;39547;45.554;12.068;2022-08-03T16:32:28;35.00;26.00
53645;DHT22;39547;45.554;12.068;2022-08-03T16:38:29;34.80;27.00
53645;DHT22;39547;45.554;12.068;2022-08-03T16:44:31;34.40;27.20
53645;DHT22;39547;45.554;12.068;2022-08-03T16:50:33;34.20;27.40
53645;DHT22;39547;45.554;12.068;2022-08-03T16:56:34;34.10;27.50
53645;DHT22;39547;45.554;12.068;2022-08-03T17:02:36;34.10;27.30
53645;DHT22;39547;45.554;12.068;2022-08-03T17:08:37;34.00;28.30
53645;DHT22;39547;45.554;12.068;2022-08-03T17:14:39;33.80;28.90
53645;DHT22;39547;45.554;12.068;2022-08-03T17:20:40;33.60;28.90
53645;DHT22;39547;45.554;12.068;2022-08-03T17:26:46;33.50;29.10
53645;DHT22;39547;45.554;12.068;2022-08-03T17:32:48;33.40;30.20
53645;DHT22;39547;45.554;12.068;2022-08-03T17:38:50;33.20;30.20
53645;DHT22;39547;45.554;12.068;2022-08-03T17:44:55;33.00;30.30
53645;DHT22;39547;45.554;12.068;2022-08-03T17:51:02;32.80;30.50
53645;DHT22;39547;45.554;12.068;2022-08-03T17:57:10;32.70;31.10
53645;DHT22;39547;45.554;12.068;2022-08-03T18:09:26;32.30;32.00
53645;DHT22;39547;45.554;12.068;2022-08-03T18:15:28;32.20;32.10
53645;DHT22;39547;45.554;12.068;2022-08-03T18:21:35;32.00;32.60
53645;DHT22;39547;45.554;12.068;2022-08-03T18:27:36;31.90;33.30
53645;DHT22;39547;45.554;12.068;2022-08-03T18:33:39;31.80;33.90
53645;DHT22;39547;45.554;12.068;2022-08-03T18:39:41;31.70;35.60
53645;DHT22;39547;45.554;12.068;2022-08-03T18:45:42;31.50;35.90
53645;DHT22;39547;45.554;12.068;2022-08-03T18:51:44;31.40;36.60
53645;DHT22;39547;45.554;12.068;2022-08-03T19:03:50;31.10;39.30
53645;DHT22;39547;45.554;12.068;2022-08-03T19:09:59;30.90;39.40
53645;DHT22;39547;45.554;12.068;2022-08-03T19:16:03;30.80;40.60
53645;DHT22;39547;45.554;12.068;2022-08-03T19:22:05;30.70;40.90
53645;DHT22;39547;45.554;12.068;2022-08-03T19:28:08;30.60;41.70
53645;DHT22;39547;45.554;12.068;2022-08-03T19:34:09;30.40;42.00
53645;DHT22;39547;45.554;12.068;2022-08-03T19:40:11;30.30;43.10
53645;DHT22;39547;45.554;12.068;2022-08-03T19:46:12;30.20;43.40
53645;DHT22;39547;45.554;12.068;2022-08-03T19:52:14;30.10;43.30
53645;DHT22;39547;45.554;12.068;2022-08-03T19:58:16;30.00;44.00
53645;DHT22;39547;45.554;12.068;2022-08-03T20:04:18;29.90;43.90
53645;DHT22;39547;45.554;12.068;2022-08-03T20:10:20;29.80;44.30
53645;DHT22;39547;45.554;12.068;2022-08-03T20:16:21;29.70;44.40
53645;DHT22;39547;45.554;12.068;2022-08-03T20:22:26;29.60;45.00
53645;DHT22;39547;45.554;12.068;2022-08-03T20:28:41;29.50;45.20
53645;DHT22;39547;45.554;12.068;2022-08-03T20:34:43;29.30;45.20
53645;DHT22;39547;45.554;12.068;2022-08-03T20:40:46;29.30;45.90
53645;DHT22;39547;45.554;12.068;2022-08-03T20:46:47;29.30;45.60
53645;DHT22;39547;45.554;12.068;2022-08-03T20:52:48;29.20;46.00
53645;DHT22;39547;45.554;12.068;2022-08-03T20:58:49;29.20;46.20
53645;DHT22;39547;45.554;12.068;2022-08-03T21:04:51;29.00;46.70
53645;DHT22;39547;45.554;12.068;2022-08-03T21:10:52;28.90;47.50
53645;DHT22;39547;45.554;12.068;2022-08-03T21:16:56;28.80;48.20
53645;DHT22;39547;45.554;12.068;2022-08-03T21:22:58;28.80;48.50
53645;DHT22;39547;45.554;12.068;2022-08-03T21:28:59;28.70;48.60
53645;DHT22;39547;45.554;12.068;2022-08-03T21:35:02;28.60;48.80
53645;DHT22;39547;45.554;12.068;2022-08-03T21:41:03;28.50;49.80
53645;DHT22;39547;45.554;12.068;2022-08-03T21:47:06;28.30;50.60
53645;DHT22;39547;45.554;12.068;2022-08-03T21:53:08;28.20;50.20
53645;DHT22;39547;45.554;12.068;2022-08-03T21:59:16;28.10;49.90
53645;DHT22;39547;45.554;12.068;2022-08-03T22:05:18;28.10;49.60
53645;DHT22;39547;45.554;12.068;2022-08-03T22:11:20;28.00;50.60
53645;DHT22;39547;45.554;12.068;2022-08-03T22:17:21;27.90;51.70
53645;DHT22;39547;45.554;12.068;2022-08-03T22:23:23;27.90;51.20
53645;DHT22;39547;45.554;12.068;2022-08-03T22:29:25;27.80;51.20
53645;DHT22;39547;45.554;12.068;2022-08-03T22:35:27;27.70;52.20
53645;DHT22;39547;45.554;12.068;2022-08-03T22:41:28;27.60;52.00
53645;DHT22;39547;45.554;12.068;2022-08-03T22:47:29;27.60;51.90
53645;DHT22;39547;45.554;12.068;2022-08-03T22:53:32;27.50;53.00
53645;DHT22;39547;45.554;12.068;2022-08-03T22:59:33;27.40;52.60
53645;DHT22;39547;45.554;12.068;2022-08-03T23:05:36;27.30;52.60
53645;DHT22;39547;45.554;12.068;2022-08-03T23:11:37;27.30;53.50
53645;DHT22;39547;45.554;12.068;2022-08-03T23:23:49;27.20;53.10
53645;DHT22;39547;45.554;12.068;2022-08-03T23:29:50;27.10;53.10
53645;DHT22;39547;45.554;12.068;2022-08-03T23:35:52;27.10;53.90
53645;DHT22;39547;45.554;12.068;2022-08-03T23:41:58;27.10;53.30
53645;DHT22;39547;45.554;12.068;2022-08-03T23:47:59;27.10;53.50
53645;DHT22;39547;45.554;12.068;2022-08-03T23:54:22;27.20;53.30
